sensor_id;sensor_type;location;lat;lon;timestamp;pressure;altitude;pressure_sealevel;temperature;humidity
5952;BME280;3001;42.622;23.194;2023-01-26T00:02:13;91495.09;;;3.99;81.27
5952;BME280;3001;42.622;23.194;2023-01-26T00:04:39;91490.50;;;3.91;81.39
5952;BME280;3001;42.622;23.194;2023-01-26T00:07:07;91496.91;;;3.93;81.47
5952;BME280;3001;42.622;23.194;2023-01-26T00:09:34;91502.28;;;3.87;82.13
5952;BME280;3001;42.622;23.194;2023-01-26T00:12:01;91504.09;;;3.86;82.50
5952;BME280;3001;42.622;23.194;2023-01-26T00:14:27;91523.84;;;3.71;83.06
5952;BME280;3001;42.622;23.194;2023-01-26T00:17:14;91521.81;;;3.78;82.17
5952;BME280;3001;42.622;23.194;2023-01-26T00:19:41;91516.09;;;3.66;81.19
5952;BME280;3001;42.622;23.194;2023-01-26T00:22:09;91510.22;;;3.65;82.20
5952;BME280;3001;42.622;23.194;2023-01-26T00:24:35;91506.84;;;3.60;81.90
5952;BME280;3001;42.622;23.194;2023-01-26T00:27:02;91498.66;;;3.68;82.23
5952;BME280;3001;42.622;23.194;2023-01-26T00:29:29;91487.63;;;3.67;82.42
5952;BME280;3001;42.622;23.194;2023-01-26T00:31:56;91478.63;;;3.70;81.82
5952;BME280;3001;42.622;23.194;2023-01-26T00:34:22;91469.13;;;3.65;81.97
5952;BME280;3001;42.622;23.194;2023-01-26T00:36:49;91469.84;;;3.46;83.29
5952;BME280;3001;42.622;23.194;2023-01-26T00:39:17;91473.47;;;3.60;82.32
5952;BME280;3001;42.622;23.194;2023-01-26T00:41:44;91472.72;;;3.69;81.87
5952;BME280;3001;42.622;23.194;2023-01-26T00:44:34;91466.03;;;3.68;82.21
5952;BME280;3001;42.622;23.194;2023-01-26T00:47:01;91470.41;;;3.73;82.07
5952;BME280;3001;42.622;23.194;2023-01-26T00:49:28;91467.34;;;3.71;81.91
5952;BME280;3001;42.622;23.194;2023-01-26T00:51:54;91465.03;;;3.79;81.90
5952;BME280;3001;42.622;23.194;2023-01-26T00:54:22;91462.19;;;3.81;81.86
5952;BME280;3001;42.622;23.194;2023-01-26T00:56:49;91460.88;;;3.53;82.93
5952;BME280;3001;42.622;23.194;2023-01-26T00:59:16;91456.28;;;3.65;82.90
5952;BME280;3001;42.622;23.194;2023-01-26T01:01:42;91459.09;;;3.59;82.85
5952;BME280;3001;42.622;23.194;2023-01-26T01:04:09;91456.75;;;3.47;83.15
5952;BME280;3001;42.622;23.194;2023-01-26T01:06:36;91452.41;;;3.48;82.17
5952;BME280;3001;42.622;23.194;2023-01-26T01:09:03;91453.91;;;3.44;83.13
5952;BME280;3001;42.622;23.194;2023-01-26T01:11:31;91457.25;;;3.44;83.09
5952;BME280;3001;42.622;23.194;2023-01-26T01:13:58;91455.97;;;3.37;83.17
5952;BME280;3001;42.622;23.194;2023-01-26T01:16:25;91461.63;;;3.44;83.46
5952;BME280;3001;42.622;23.194;2023-01-26T01:18:53;91456.47;;;3.44;82.94
5952;BME280;3001;42.622;23.194;2023-01-26T01:21:21;91454.72;;;3.64;82.60
5952;BME280;3001;42.622;23.194;2023-01-26T01:23:48;91446.75;;;3.66;81.68
5952;BME280;3001;42.622;23.194;2023-01-26T01:26:16;91444.75;;;3.68;81.30
5952;BME280;3001;42.622;23.194;2023-01-26T01:28:44;91447.53;;;3.71;81.42
5952;BME280;3001;42.622;23.194;2023-01-26T01:31:12;91442.41;;;3.71;81.50
5952;BME280;3001;42.622;23.194;2023-01-26T01:33:39;91449.34;;;3.76;81.43
5952;BME280;3001;42.622;23.194;2023-01-26T01:36:07;91449.84;;;3.58;81.83
5952;BME280;3001;42.622;23.194;2023-01-26T01:38:35;91442.38;;;3.56;82.07
5952;BME280;3001;42.622;23.194;2023-01-26T01:41:02;91442.41;;;3.71;80.95
5952;BME280;3001;42.622;23.194;2023-01-26T01:43:29;91441.63;;;3.61;81.45
5952;BME280;3001;42.622;23.194;2023-01-26T01:45:58;91445.97;;;3.40;82.21
5952;BME280;3001;42.622;23.194;2023-01-26T01:48:29;91438.50;;;3.34;82.68
5952;BME280;3001;42.622;23.194;2023-01-26T01:50:59;91440.31;;;3.38;81.78
5952;BME280;3001;42.622;23.194;2023-01-26T01:53:31;91436.72;;;3.44;81.97
5952;BME280;3001;42.622;23.194;2023-01-26T01:56:01;91438.78;;;3.47;81.44
5952;BME280;3001;42.622;23.194;2023-01-26T01:58:31;91438.78;;;3.52;81.10
5952;BME280;3001;42.622;23.194;2023-01-26T02:01:00;91429.81;;;3.55;81.41
5952;BME280;3001;42.622;23.194;2023-01-26T02:03:27;91422.59;;;3.42;82.18
5952;BME280;3001;42.622;23.194;2023-01-26T02:05:58;91419.06;;;3.68;80.58
5952;BME280;3001;42.622;23.194;2023-01-26T02:08:30;91416.47;;;3.68;81.03
5952;BME280;3001;42.622;23.194;2023-01-26T02:10:59;91405.44;;;3.57;81.29
5952;BME280;3001;42.622;23.194;2023-01-26T02:13:30;91403.38;;;3.64;80.87
5952;BME280;3001;42.622;23.194;2023-01-26T02:15:59;91393.09;;;3.79;80.59
5952;BME280;3001;42.622;23.194;2023-01-26T02:18:27;91390.53;;;3.79;80.05
5952;BME280;3001;42.622;23.194;2023-01-26T02:20:57;91383.34;;;3.81;79.59
5952;BME280;3001;42.622;23.194;2023-01-26T02:23:37;91377.16;;;3.87;79.91
5952;BME280;3001;42.622;23.194;2023-01-26T02:26:09;91370.75;;;3.75;79.72
5952;BME280;3001;42.622;23.194;2023-01-26T02:28:38;91376.41;;;3.77;80.25
5952;BME280;3001;42.622;23.194;2023-01-26T02:31:05;91383.34;;;3.71;79.24
5952;BME280;3001;42.622;23.194;2023-01-26T02:33:32;91375.88;;;3.65;79.50
5952;BME280;3001;42.622;23.194;2023-01-26T02:35:59;91369.22;;;3.54;79.89
5952;BME280;3001;42.622;23.194;2023-01-26T02:38:32;91364.59;;;3.56;80.21
5952;BME280;3001;42.622;23.194;2023-01-26T02:41:04;91356.63;;;3.62;80.06
5952;BME280;3001;42.622;23.194;2023-01-26T02:43:33;91356.63;;;3.57;80.46
5952;BME280;3001;42.622;23.194;2023-01-26T02:45:58;91355.34;;;3.60;79.75
5952;BME280;3001;42.622;23.194;2023-01-26T02:48:25;91360.75;;;3.63;80.01
5952;BME280;3001;42.622;23.194;2023-01-26T02:51:09;91355.59;;;3.63;80.43
5952;BME280;3001;42.622;23.194;2023-01-26T02:53:36;91355.34;;;3.60;79.65
5952;BME280;3001;42.622;23.194;2023-01-26T02:56:03;91341.75;;;3.59;80.01
5952;BME280;3001;42.622;23.194;2023-01-26T02:58:29;91341.72;;;3.54;80.58
5952;BME280;3001;42.622;23.194;2023-01-26T03:00:57;91339.66;;;3.56;80.11
5952;BME280;3001;42.622;23.194;2023-01-26T03:03:25;91340.69;;;3.55;80.86
5952;BME280;3001;42.622;23.194;2023-01-26T03:06:06;91325.03;;;3.47;80.46
5952;BME280;3001;42.622;23.194;2023-01-26T03:08:33;91335.56;;;3.55;80.87
5952;BME280;3001;42.622;23.194;2023-01-26T03:11:00;91336.06;;;3.77;79.92
5952;BME280;3001;42.622;23.194;2023-01-26T03:13:27;91326.84;;;3.66;79.26
5952;BME280;3001;42.622;23.194;2023-01-26T03:15:53;91327.59;;;3.72;79.23
5952;BME280;3001;42.622;23.194;2023-01-26T03:18:22;91327.06;;;3.65;79.06
5952;BME280;3001;42.622;23.194;2023-01-26T03:21:09;91318.88;;;3.63;79.60
5952;BME280;3001;42.622;23.194;2023-01-26T03:23:54;91321.69;;;3.66;79.32
5952;BME280;3001;42.622;23.194;2023-01-26T03:26:38;91320.91;;;3.66;79.02
5952;BME280;3001;42.622;23.194;2023-01-26T03:29:20;91321.72;;;3.61;79.89
5952;BME280;3001;42.622;23.194;2023-01-26T03:31:46;91312.47;;;3.60;79.33
5952;BME280;3001;42.622;23.194;2023-01-26T03:34:15;91309.38;;;3.63;79.35
5952;BME280;3001;42.622;23.194;2023-01-26T03:36:42;91313.22;;;3.51;80.11
5952;BME280;3001;42.622;23.194;2023-01-26T03:39:08;91319.91;;;3.52;80.34
5952;BME280;3001;42.622;23.194;2023-01-26T03:41:55;91310.16;;;3.54;79.06
5952;BME280;3001;42.622;23.194;2023-01-26T03:44:39;91312.72;;;3.54;79.28
5952;BME280;3001;42.622;23.194;2023-01-26T03:47:23;91309.91;;;3.45;79.48
5952;BME280;3001;42.622;23.194;2023-01-26T03:50:09;91301.91;;;3.47;79.42
5952;BME280;3001;42.622;23.194;2023-01-26T03:52:53;91305.28;;;3.57;78.88
5952;BME280;3001;42.622;23.194;2023-01-26T03:55:37;91301.94;;;3.57;79.62
5952;BME280;3001;42.622;23.194;2023-01-26T03:58:21;91299.88;;;3.59;78.78
5952;BME280;3001;42.622;23.194;2023-01-26T04:00:48;91275.75;;;3.40;79.70
5952;BME280;3001;42.622;23.194;2023-01-26T04:03:15;91278.31;;;3.55;79.03
5952;BME280;3001;42.622;23.194;2023-01-26T04:06:00;91280.34;;;3.58;79.30
5952;BME280;3001;42.622;23.194;2023-01-26T04:08:45;91261.09;;;3.60;79.34
5952;BME280;3001;42.622;23.194;2023-01-26T04:11:12;91260.81;;;3.67;79.07
5952;BME280;3001;42.622;23.194;2023-01-26T04:13:39;91246.44;;;3.76;78.65
5952;BME280;3001;42.622;23.194;2023-01-26T04:16:23;91241.56;;;3.79;78.62
5952;BME280;3001;42.622;23.194;2023-01-26T04:19:07;91233.09;;;3.69;79.12
5952;BME280;3001;42.622;23.194;2023-01-26T04:21:52;91230.28;;;3.65;78.69
5952;BME280;3001;42.622;23.194;2023-01-26T04:24:19;91236.91;;;3.76;79.04
5952;BME280;3001;42.622;23.194;2023-01-26T04:26:47;91238.19;;;3.89;77.78
5952;BME280;3001;42.622;23.194;2023-01-26T04:29:14;91238.19;;;3.89;78.01
5952;BME280;3001;42.622;23.194;2023-01-26T04:31:41;91234.06;;;3.83;77.94
5952;BME280;3001;42.622;23.194;2023-01-26T04:34:10;91247.19;;;3.86;77.71
5952;BME280;3001;42.622;23.194;2023-01-26T04:36:37;91247.97;;;3.77;77.58
5952;BME280;3001;42.622;23.194;2023-01-26T04:39:06;91252.59;;;3.75;77.78
5952;BME280;3001;42.622;23.194;2023-01-26T04:41:33;91262.59;;;3.86;75.85
5952;BME280;3001;42.622;23.194;2023-01-26T04:44:00;91267.47;;;3.78;76.03
5952;BME280;3001;42.622;23.194;2023-01-26T04:46:26;91263.91;;;3.74;76.38
5952;BME280;3001;42.622;23.194;2023-01-26T04:48:53;91255.41;;;3.73;77.26
5952;BME280;3001;42.622;23.194;2023-01-26T04:51:20;91248.75;;;3.67;75.71
5952;BME280;3001;42.622;23.194;2023-01-26T04:53:48;91259.81;;;3.63;76.75
5952;BME280;3001;42.622;23.194;2023-01-26T04:56:21;91258.81;;;3.49;77.40
5952;BME280;3001;42.622;23.194;2023-01-26T04:58:48;91259.06;;;3.47;77.45
5952;BME280;3001;42.622;23.194;2023-01-26T05:01:15;91262.41;;;3.48;77.05
5952;BME280;3001;42.622;23.194;2023-01-26T05:03:42;91271.13;;;3.57;77.75
5952;BME280;3001;42.622;23.194;2023-01-26T05:06:08;91264.44;;;3.61;77.57
5952;BME280;3001;42.622;23.194;2023-01-26T05:08:35;91271.88;;;3.62;77.49
5952;BME280;3001;42.622;23.194;2023-01-26T05:11:02;91265.19;;;3.56;77.75
5952;BME280;3001;42.622;23.194;2023-01-26T05:13:30;91265.47;;;3.60;77.95
5952;BME280;3001;42.622;23.194;2023-01-26T05:15:57;91261.88;;;3.46;77.90
5952;BME280;3001;42.622;23.194;2023-01-26T05:18:24;91262.41;;;3.48;78.70
5952;BME280;3001;42.622;23.194;2023-01-26T05:20:50;91249.81;;;3.61;77.72
5952;BME280;3001;42.622;23.194;2023-01-26T05:23:17;91248.00;;;3.62;77.49
5952;BME280;3001;42.622;23.194;2023-01-26T05:25:44;91248.50;;;3.59;78.00
5952;BME280;3001;42.622;23.194;2023-01-26T05:28:10;91253.88;;;3.67;78.10
5952;BME280;3001;42.622;23.194;2023-01-26T05:30:38;91253.13;;;3.57;77.67
5952;BME280;3001;42.622;23.194;2023-01-26T05:33:06;91248.03;;;3.52;77.96
5952;BME280;3001;42.622;23.194;2023-01-26T05:35:35;91247.75;;;3.53;78.56
5952;BME280;3001;42.622;23.194;2023-01-26T05:38:02;91242.59;;;3.53;78.52
5952;BME280;3001;42.622;23.194;2023-01-26T05:40:28;91245.69;;;3.55;78.37
5952;BME280;3001;42.622;23.194;2023-01-26T05:42:55;91250.84;;;3.50;78.64
5952;BME280;3001;42.622;23.194;2023-01-26T05:45:22;91251.84;;;3.49;78.22
5952;BME280;3001;42.622;23.194;2023-01-26T05:47:50;91251.34;;;3.47;78.12
5952;BME280;3001;42.622;23.194;2023-01-26T05:50:16;91256.22;;;3.69;77.29
5952;BME280;3001;42.622;23.194;2023-01-26T05:52:43;91255.69;;;3.77;76.26
5952;BME280;3001;42.622;23.194;2023-01-26T05:55:11;91254.44;;;3.59;77.76
5952;BME280;3001;42.622;23.194;2023-01-26T05:57:38;91261.34;;;3.64;77.77
5952;BME280;3001;42.622;23.194;2023-01-26T06:00:06;91245.44;;;3.52;77.14
5952;BME280;3001;42.622;23.194;2023-01-26T06:02:33;91245.44;;;3.57;77.88
5952;BME280;3001;42.622;23.194;2023-01-26T06:05:01;91238.50;;;3.47;77.74
5952;BME280;3001;42.622;23.194;2023-01-26T06:07:28;91236.72;;;3.43;78.71
5952;BME280;3001;42.622;23.194;2023-01-26T06:09:54;91241.31;;;3.61;78.12
5952;BME280;3001;42.622;23.194;2023-01-26T06:12:22;91245.66;;;3.80;77.32
5952;BME280;3001;42.622;23.194;2023-01-26T06:14:49;91247.47;;;3.75;77.16
5952;BME280;3001;42.622;23.194;2023-01-26T06:17:17;91244.66;;;3.56;78.54
5952;BME280;3001;42.622;23.194;2023-01-26T06:19:43;91241.34;;;3.36;78.65
5952;BME280;3001;42.622;23.194;2023-01-26T06:22:12;91234.41;;;3.41;78.94
5952;BME280;3001;42.622;23.194;2023-01-26T06:24:39;91237.97;;;3.55;78.47
5952;BME280;3001;42.622;23.194;2023-01-26T06:27:07;91235.44;;;3.60;78.33
5952;BME280;3001;42.622;23.194;2023-01-26T06:29:37;91231.81;;;3.66;78.02
5952;BME280;3001;42.622;23.194;2023-01-26T06:32:04;91230.78;;;3.67;77.35
5952;BME280;3001;42.622;23.194;2023-01-26T06:34:31;91228.47;;;3.71;77.36
5952;BME280;3001;42.622;23.194;2023-01-26T06:36:58;91218.47;;;3.59;77.94
5952;BME280;3001;42.622;23.194;2023-01-26T06:39:26;91226.69;;;3.61;77.65
5952;BME280;3001;42.622;23.194;2023-01-26T06:41:52;91235.13;;;3.72;77.58
5952;BME280;3001;42.622;23.194;2023-01-26T06:44:19;91232.56;;;3.67;77.22
5952;BME280;3001;42.622;23.194;2023-01-26T06:46:46;91224.88;;;3.72;76.65
5952;BME280;3001;42.622;23.194;2023-01-26T06:49:12;91224.88;;;3.72;76.80
5952;BME280;3001;42.622;23.194;2023-01-26T06:51:46;91180.00;;;3.39;77.15
5952;BME280;3001;42.622;23.194;2023-01-26T06:54:17;91218.72;;;3.63;76.95
5952;BME280;3001;42.622;23.194;2023-01-26T06:56:45;91220.25;;;3.64;77.34
5952;BME280;3001;42.622;23.194;2023-01-26T06:59:12;91214.88;;;3.60;77.25
5952;BME280;3001;42.622;23.194;2023-01-26T07:01:41;91219.44;;;3.73;76.45
5952;BME280;3001;42.622;23.194;2023-01-26T07:04:09;91216.69;;;3.50;76.31
5952;BME280;3001;42.622;23.194;2023-01-26T07:06:36;91224.38;;;3.55;77.11
5952;BME280;3001;42.622;23.194;2023-01-26T07:09:02;91224.38;;;3.60;77.04
5952;BME280;3001;42.622;23.194;2023-01-26T07:11:29;91211.78;;;3.68;76.43
5952;BME280;3001;42.622;23.194;2023-01-26T07:13:58;91217.38;;;3.75;76.87
5952;BME280;3001;42.622;23.194;2023-01-26T07:16:25;91208.22;;;3.59;75.54
5952;BME280;3001;42.622;23.194;2023-01-26T07:18:52;91212.75;;;3.77;75.38
5952;BME280;3001;42.622;23.194;2023-01-26T07:21:20;91202.75;;;3.81;76.61
5952;BME280;3001;42.622;23.194;2023-01-26T07:23:48;91206.09;;;3.76;76.44
5952;BME280;3001;42.622;23.194;2023-01-26T07:26:15;91212.00;;;3.77;76.38
5952;BME280;3001;42.622;23.194;2023-01-26T07:28:42;91218.38;;;3.89;75.84
5952;BME280;3001;42.622;23.194;2023-01-26T07:31:10;91203.78;;;3.80;75.24
5952;BME280;3001;42.622;23.194;2023-01-26T07:33:37;91211.25;;;3.71;76.56
5952;BME280;3001;42.622;23.194;2023-01-26T07:36:04;91208.91;;;3.80;75.49
5952;BME280;3001;42.622;23.194;2023-01-26T07:38:32;91200.19;;;3.76;75.98
5952;BME280;3001;42.622;23.194;2023-01-26T07:41:04;91209.69;;;3.75;76.38
5952;BME280;3001;42.622;23.194;2023-01-26T07:43:32;91209.25;;;3.58;77.13
5952;BME280;3001;42.622;23.194;2023-01-26T07:45:58;91217.63;;;3.84;76.02
5952;BME280;3001;42.622;23.194;2023-01-26T07:48:27;91218.19;;;3.71;76.81
5952;BME280;3001;42.622;23.194;2023-01-26T07:50:58;91222.81;;;3.64;76.38
5952;BME280;3001;42.622;23.194;2023-01-26T07:53:25;91218.19;;;3.66;76.07
5952;BME280;3001;42.622;23.194;2023-01-26T07:55:54;91216.41;;;3.61;76.74
5952;BME280;3001;42.622;23.194;2023-01-26T07:58:30;91218.69;;;3.73;77.00
5952;BME280;3001;42.622;23.194;2023-01-26T08:01:03;91222.03;;;3.68;76.49
5952;BME280;3001;42.622;23.194;2023-01-26T08:03:31;91220.56;;;3.38;77.45
5952;BME280;3001;42.622;23.194;2023-01-26T08:05:58;91217.22;;;3.42;77.92
5952;BME280;3001;42.622;23.194;2023-01-26T08:08:25;91213.09;;;3.46;79.12
5952;BME280;3001;42.622;23.194;2023-01-26T08:10:55;91219.28;;;3.30;79.21
5952;BME280;3001;42.622;23.194;2023-01-26T08:13:21;91201.31;;;3.35;79.45
5952;BME280;3001;42.622;23.194;2023-01-26T08:15:48;91188.72;;;3.33;78.98
5952;BME280;3001;42.622;23.194;2023-01-26T08:18:15;91191.81;;;3.31;79.44
5952;BME280;3001;42.622;23.194;2023-01-26T08:20:48;91200.25;;;3.41;80.01
5952;BME280;3001;42.622;23.194;2023-01-26T08:23:15;91209.25;;;3.43;80.32
5952;BME280;3001;42.622;23.194;2023-01-26T08:25:41;91210.78;;;3.59;79.59
5952;BME280;3001;42.622;23.194;2023-01-26T08:28:08;91206.41;;;3.55;79.47
5952;BME280;3001;42.622;23.194;2023-01-26T08:30:35;91198.66;;;3.65;79.95
5952;BME280;3001;42.622;23.194;2023-01-26T08:33:02;91195.06;;;3.66;79.07
5952;BME280;3001;42.622;23.194;2023-01-26T08:35:30;91191.47;;;3.72;78.71
5952;BME280;3001;42.622;23.194;2023-01-26T08:37:59;91185.50;;;3.86;78.76
5952;BME280;3001;42.622;23.194;2023-01-26T08:40:26;91193.47;;;3.90;78.58
5952;BME280;3001;42.622;23.194;2023-01-26T08:42:52;91205.28;;;3.91;78.17
5952;BME280;3001;42.622;23.194;2023-01-26T08:45:19;91213.22;;;3.99;77.93
5952;BME280;3001;42.622;23.194;2023-01-26T08:47:47;91206.03;;;3.91;77.49
5952;BME280;3001;42.622;23.194;2023-01-26T08:50:14;91203.28;;;3.78;78.54
5952;BME280;3001;42.622;23.194;2023-01-26T08:52:41;91199.84;;;3.97;78.54
5952;BME280;3001;42.622;23.194;2023-01-26T08:55:10;91194.22;;;4.00;79.00
5952;BME280;3001;42.622;23.194;2023-01-26T08:57:36;91205.41;;;4.24;78.30
5952;BME280;3001;42.622;23.194;2023-01-26T09:00:04;91201.63;;;4.12;77.42
5952;BME280;3001;42.622;23.194;2023-01-26T09:02:31;91200.81;;;4.16;75.30
5952;BME280;3001;42.622;23.194;2023-01-26T09:04:58;91205.72;;;4.08;77.63
5952;BME280;3001;42.622;23.194;2023-01-26T09:07:24;91210.13;;;3.97;76.88
5952;BME280;3001;42.622;23.194;2023-01-26T09:09:51;91215.06;;;3.89;77.59
5952;BME280;3001;42.622;23.194;2023-01-26T09:12:19;91209.41;;;3.82;78.25
5952;BME280;3001;42.622;23.194;2023-01-26T09:14:46;91209.97;;;3.64;80.24
5952;BME280;3001;42.622;23.194;2023-01-26T09:17:13;91205.59;;;3.69;80.75
5952;BME280;3001;42.622;23.194;2023-01-26T09:19:39;91193.19;;;4.01;77.99
5952;BME280;3001;42.622;23.194;2023-01-26T09:22:06;91191.47;;;3.77;79.36
5952;BME280;3001;42.622;23.194;2023-01-26T09:24:33;91187.28;;;3.96;79.16
5952;BME280;3001;42.622;23.194;2023-01-26T09:26:59;91185.97;;;4.03;76.83
5952;BME280;3001;42.622;23.194;2023-01-26T09:29:27;91173.94;;;3.94;77.35
5952;BME280;3001;42.622;23.194;2023-01-26T09:31:54;91163.13;;;3.97;77.42
5952;BME280;3001;42.622;23.194;2023-01-26T09:34:21;91158.22;;;3.95;77.92
5952;BME280;3001;42.622;23.194;2023-01-26T09:36:49;91163.59;;;4.09;78.10
5952;BME280;3001;42.622;23.194;2023-01-26T09:39:16;91165.31;;;4.18;77.48
5952;BME280;3001;42.622;23.194;2023-01-26T09:41:51;91165.84;;;4.20;76.89
5952;BME280;3001;42.622;23.194;2023-01-26T09:44:23;91170.72;;;4.22;76.94
5952;BME280;3001;42.622;23.194;2023-01-26T09:47:01;91171.22;;;4.24;77.32
5952;BME280;3001;42.622;23.194;2023-01-26T09:49:40;91156.59;;;4.19;77.50
5952;BME280;3001;42.622;23.194;2023-01-26T09:52:12;91160.44;;;4.22;78.25
5952;BME280;3001;42.622;23.194;2023-01-26T09:54:43;91147.03;;;4.30;78.32
5952;BME280;3001;42.622;23.194;2023-01-26T09:57:14;91151.59;;;4.38;77.50
5952;BME280;3001;42.622;23.194;2023-01-26T09:59:46;91147.59;;;4.17;77.79
5952;BME280;3001;42.622;23.194;2023-01-26T10:02:28;91150.66;;;4.24;76.93
5952;BME280;3001;42.622;23.194;2023-01-26T10:05:02;91150.09;;;4.27;76.35
5952;BME280;3001;42.622;23.194;2023-01-26T10:07:30;91140.41;;;4.19;77.75
5952;BME280;3001;42.622;23.194;2023-01-26T10:09:57;91131.59;;;4.30;77.89
5952;BME280;3001;42.622;23.194;2023-01-26T10:12:27;91138.03;;;4.27;77.85
5952;BME280;3001;42.622;23.194;2023-01-26T10:14:59;91139.81;;;4.32;77.41
5952;BME280;3001;42.622;23.194;2023-01-26T10:17:31;91124.47;;;4.17;78.72
5952;BME280;3001;42.622;23.194;2023-01-26T10:20:02;91107.78;;;4.14;78.72
5952;BME280;3001;42.622;23.194;2023-01-26T10:22:37;91094.00;;;4.39;78.56
5952;BME280;3001;42.622;23.194;2023-01-26T10:25:14;91087.81;;;4.40;78.10
5952;BME280;3001;42.622;23.194;2023-01-26T10:27:41;91086.00;;;4.45;78.46
5952;BME280;3001;42.622;23.194;2023-01-26T10:30:12;91079.84;;;4.41;79.73
5952;BME280;3001;42.622;23.194;2023-01-26T10:32:42;91066.75;;;4.38;78.99
5952;BME280;3001;42.622;23.194;2023-01-26T10:35:16;91059.13;;;4.23;80.43
5952;BME280;3001;42.622;23.194;2023-01-26T10:37:43;91054.81;;;4.52;79.07
5952;BME280;3001;42.622;23.194;2023-01-26T10:40:10;91053.16;;;4.66;78.75
5952;BME280;3001;42.622;23.194;2023-01-26T10:42:37;91043.84;;;4.70;78.60
5952;BME280;3001;42.622;23.194;2023-01-26T10:45:06;91050.00;;;4.74;77.79
5952;BME280;3001;42.622;23.194;2023-01-26T10:48:01;91052.28;;;4.80;77.36
5952;BME280;3001;42.622;23.194;2023-01-26T10:50:28;91045.63;;;4.74;77.59
5952;BME280;3001;42.622;23.194;2023-01-26T10:52:57;91044.44;;;4.62;76.60
5952;BME280;3001;42.622;23.194;2023-01-26T10:55:24;91031.09;;;4.60;77.79
5952;BME280;3001;42.622;23.194;2023-01-26T10:57:51;91011.56;;;4.59;77.53
5952;BME280;3001;42.622;23.194;2023-01-26T11:00:26;91005.38;;;4.60;77.42
5952;BME280;3001;42.622;23.194;2023-01-26T11:03:03;91007.44;;;4.58;77.72
5952;BME280;3001;42.622;23.194;2023-01-26T11:05:32;90999.41;;;4.64;75.86
5952;BME280;3001;42.622;23.194;2023-01-26T11:07:58;90996.69;;;4.79;74.49
5952;BME280;3001;42.622;23.194;2023-01-26T11:10:30;90998.34;;;4.94;73.43
5952;BME280;3001;42.622;23.194;2023-01-26T11:13:21;90992.31;;;4.80;74.27
5952;BME280;3001;42.622;23.194;2023-01-26T11:15:49;90994.59;;;4.58;75.38
5952;BME280;3001;42.622;23.194;2023-01-26T11:55:24;90937.78;;;4.78;78.22
5952;BME280;3001;42.622;23.194;2023-01-26T11:58:03;90939.81;;;4.81;78.00
5952;BME280;3001;42.622;23.194;2023-01-26T12:00:40;90931.31;;;5.03;78.21
5952;BME280;3001;42.622;23.194;2023-01-26T12:03:16;90922.03;;;4.61;80.48
5952;BME280;3001;42.622;23.194;2023-01-26T12:05:46;90912.34;;;4.53;80.61
5952;BME280;3001;42.622;23.194;2023-01-26T12:08:19;90914.47;;;4.69;80.17
5952;BME280;3001;42.622;23.194;2023-01-26T12:10:58;90912.94;;;4.68;80.94
5952;BME280;3001;42.622;23.194;2023-01-26T12:13:49;90886.56;;;4.58;80.63
5952;BME280;3001;42.622;23.194;2023-01-26T12:16:23;90887.13;;;4.55;80.63
5952;BME280;3001;42.622;23.194;2023-01-26T12:18:56;90874.84;;;4.47;81.12
5952;BME280;3001;42.622;23.194;2023-01-26T12:21:25;90874.31;;;4.50;80.84
5952;BME280;3001;42.622;23.194;2023-01-26T12:23:58;90856.88;;;4.23;81.44
5952;BME280;3001;42.622;23.194;2023-01-26T12:26:32;90848.38;;;3.99;82.61
5952;BME280;3001;42.622;23.194;2023-01-26T12:29:06;90850.91;;;4.51;81.63
5952;BME280;3001;42.622;23.194;2023-01-26T12:31:42;90848.91;;;4.67;80.32
5952;BME280;3001;42.622;23.194;2023-01-26T12:34:12;90863.19;;;4.78;79.77
5952;BME280;3001;42.622;23.194;2023-01-26T12:36:44;90860.03;;;5.04;78.90
5952;BME280;3001;42.622;23.194;2023-01-26T12:39:17;90860.69;;;4.91;78.38
5952;BME280;3001;42.622;23.194;2023-01-26T12:42:00;90868.34;;;4.78;78.76
5952;BME280;3001;42.622;23.194;2023-01-26T12:44:35;90861.50;;;4.68;78.72
5952;BME280;3001;42.622;23.194;2023-01-26T12:47:06;90857.25;;;4.59;77.52
5952;BME280;3001;42.622;23.194;2023-01-26T12:49:40;90851.97;;;4.69;77.86
5952;BME280;3001;42.622;23.194;2023-01-26T12:52:14;90858.38;;;4.71;78.32
5952;BME280;3001;42.622;23.194;2023-01-26T12:54:47;90834.41;;;4.52;78.59
5952;BME280;3001;42.622;23.194;2023-01-26T12:57:19;90838.06;;;4.70;78.72
5952;BME280;3001;42.622;23.194;2023-01-26T12:59:48;90839.84;;;4.93;78.07
5952;BME280;3001;42.622;23.194;2023-01-26T13:02:29;90841.47;;;5.07;78.05
5952;BME280;3001;42.622;23.194;2023-01-26T13:05:00;90834.97;;;4.49;79.89
5952;BME280;3001;42.622;23.194;2023-01-26T13:07:30;90835.69;;;4.55;80.40
5952;BME280;3001;42.622;23.194;2023-01-26T13:10:23;90845.03;;;4.69;79.34
5952;BME280;3001;42.622;23.194;2023-01-26T13:12:53;90834.34;;;4.57;79.80
5952;BME280;3001;42.622;23.194;2023-01-26T13:15:22;90835.13;;;4.58;80.12
5952;BME280;3001;42.622;23.194;2023-01-26T13:20:45;90844.53;;;4.67;80.60
5952;BME280;3001;42.622;23.194;2023-01-26T13:26:49;90836.91;;;4.62;80.10
5952;BME280;3001;42.622;23.194;2023-01-26T13:29:52;90843.50;;;4.87;79.24
5952;BME280;3001;42.622;23.194;2023-01-26T13:32:53;90851.03;;;5.02;78.30
5952;BME280;3001;42.622;23.194;2023-01-26T13:35:28;90851.22;;;4.87;78.45
5952;BME280;3001;42.622;23.194;2023-01-26T13:38:00;90850.75;;;4.85;78.86
5952;BME280;3001;42.622;23.194;2023-01-26T13:40:31;90845.00;;;4.51;79.79
5952;BME280;3001;42.622;23.194;2023-01-26T13:43:05;90845.75;;;4.51;79.48
5952;BME280;3001;42.622;23.194;2023-01-26T13:45:37;90841.81;;;4.35;81.31
5952;BME280;3001;42.622;23.194;2023-01-26T13:48:13;90833.06;;;4.36;80.20
5952;BME280;3001;42.622;23.194;2023-01-26T13:50:41;90832.06;;;4.32;81.19
5952;BME280;3001;42.622;23.194;2023-01-26T13:53:32;90829.53;;;4.74;79.35
5952;BME280;3001;42.622;23.194;2023-01-26T13:56:01;90819.69;;;5.00;78.03
5952;BME280;3001;42.622;23.194;2023-01-26T13:58:28;90825.00;;;4.85;77.72
5952;BME280;3001;42.622;23.194;2023-01-26T14:01:02;90820.63;;;4.67;79.34
5952;BME280;3001;42.622;23.194;2023-01-26T14:03:29;90820.56;;;4.72;79.41
5952;BME280;3001;42.622;23.194;2023-01-26T14:05:59;90828.63;;;4.84;78.26
5952;BME280;3001;42.622;23.194;2023-01-26T14:08:30;90816.03;;;5.19;77.36
5952;BME280;3001;42.622;23.194;2023-01-26T14:10:58;90823.50;;;4.84;78.08
5952;BME280;3001;42.622;23.194;2023-01-26T14:13:30;90835.94;;;4.95;77.80
5952;BME280;3001;42.622;23.194;2023-01-26T14:16:01;90829.97;;;5.00;78.05
5952;BME280;3001;42.622;23.194;2023-01-26T14:18:29;90832.81;;;4.98;77.41
5952;BME280;3001;42.622;23.194;2023-01-26T14:21:00;90834.97;;;4.91;77.34
5952;BME280;3001;42.622;23.194;2023-01-26T14:23:32;90820.66;;;4.85;77.93